createdAt,value
2016-10-21T00:00:50.857Z,10.23
2016-10-21T00:02:01.151Z,10.29
2016-10-21T00:03:11.432Z,10.26
2016-10-21T00:04:21.709Z,10.26
2016-10-21T00:05:31.992Z,10.25
2016-10-21T00:06:41.984Z,10.21
2016-10-21T00:07:52.260Z,10.17
2016-10-21T00:09:01.916Z,10.2
2016-10-21T00:10:12.238Z,10.29
2016-10-21T00:11:22.206Z,10.29
2016-10-21T00:12:32.486Z,10.29
2016-10-21T00:13:42.474Z,10.35
2016-10-21T00:14:52.141Z,10.28
2016-10-21T00:16:02.112Z,10.23
2016-10-21T00:17:11.798Z,10.35
2016-10-21T00:18:22.090Z,10.28
2016-10-21T00:19:32.066Z,10.26
2016-10-21T00:20:42.408Z,10.21
2016-10-21T00:21:52.620Z,10.39
2016-10-21T00:23:02.906Z,10.33
2016-10-21T00:24:13.189Z,10.35
2016-10-21T00:25:23.161Z,10.35
2016-10-21T00:26:33.146Z,10.41
2016-10-21T00:27:43.430Z,10.36
2016-10-21T00:28:53.092Z,10.39
2016-10-21T00:30:03.072Z,10.39
2016-10-21T00:31:13.353Z,10.39
2016-10-21T00:32:23.640Z,10.38
2016-10-21T00:33:33.918Z,10.36
2016-10-21T00:34:43.620Z,10.38
2016-10-21T00:35:53.601Z,10.46
2016-10-21T00:37:03.878Z,10.36
2016-10-21T00:38:14.154Z,10.33
2016-10-21T00:39:24.435Z,10.32
2016-10-21T00:40:34.716Z,10.35
2016-10-21T00:41:44.673Z,10.36
2016-10-21T00:42:54.986Z,10.33
2016-10-21T00:44:05.273Z,10.39
2016-10-21T00:45:15.559Z,10.44
2016-10-21T00:46:25.531Z,10.44
2016-10-21T00:47:35.192Z,10.38
2016-10-21T00:48:45.183Z,10.41
2016-10-21T00:49:55.461Z,10.41
2016-10-21T00:51:04.819Z,10.42
2016-10-21T00:52:15.115Z,10.42
2016-10-21T00:53:24.771Z,10.36
2016-10-21T00:54:34.751Z,10.54
2016-10-21T00:55:44.733Z,10.52
2016-10-21T00:56:55.016Z,10.41
2016-10-21T00:58:04.991Z,10.46
2016-10-21T00:59:14.964Z,10.47
2016-10-21T01:00:25.249Z,10.51
2016-10-21T01:01:34.909Z,10.46
2016-10-21T01:02:45.214Z,10.44
2016-10-21T01:03:55.191Z,10.36
2016-10-21T01:05:05.467Z,10.44
2016-10-21T01:06:15.439Z,10.55
2016-10-21T01:07:25.103Z,10.44
2016-10-21T01:08:35.101Z,10.52
2016-10-21T01:09:45.395Z,10.54
2016-10-21T01:10:55.376Z,10.59
2016-10-21T01:12:05.361Z,10.59
2016-10-21T01:13:15.334Z,10.54
2016-10-21T01:14:25.302Z,10.66
2016-10-21T01:15:35.289Z,10.57
2016-10-21T01:16:45.565Z,10.55
2016-10-21T01:17:55.851Z,10.65
2016-10-21T01:19:05.828Z,10.58
2016-10-21T01:20:16.117Z,10.52
2016-10-21T01:21:26.097Z,10.57
2016-10-21T01:22:36.382Z,10.47
2016-10-21T01:23:46.354Z,10.44
2016-10-21T01:24:56.366Z,10.51
2016-10-21T01:26:06.033Z,10.38
2016-10-21T01:27:16.010Z,10.46
2016-10-21T01:28:26.323Z,10.57
2016-10-21T01:29:36.323Z,10.52
2016-10-21T01:30:45.995Z,10.54
2016-10-21T01:31:55.656Z,10.65
2016-10-21T01:33:05.639Z,10.61
2016-10-21T01:34:15.915Z,10.66
2016-10-21T01:35:25.896Z,10.75
2016-10-21T01:36:36.234Z,10.8
2016-10-21T01:37:45.897Z,10.87
2016-10-21T01:38:55.882Z,10.8
2016-10-21T01:40:05.859Z,10.77
2016-10-21T01:41:16.130Z,10.79
2016-10-21T01:42:26.103Z,10.83
2016-10-21T01:43:36.079Z,10.72
2016-10-21T01:44:46.050Z,10.79
2016-10-21T01:45:55.719Z,10.63
2016-10-21T01:47:05.715Z,10.67
2016-10-21T01:48:15.695Z,10.63
2016-10-21T01:49:25.667Z,10.65
2016-10-21T01:50:35.943Z,10.63
2016-10-21T01:51:46.240Z,10.65
2016-10-21T01:52:56.522Z,10.66
2016-10-21T01:54:06.521Z,10.63
2016-10-21T01:55:15.919Z,10.63
2016-10-21T01:56:25.581Z,10.57
2016-10-21T01:57:35.859Z,10.57
2016-10-21T01:58:46.165Z,10.55
2016-10-21T01:59:56.142Z,10.47
2016-10-21T02:01:06.116Z,10.55
2016-10-21T02:02:16.115Z,10.42
2016-10-21T02:03:26.391Z,10.51
2016-10-21T02:04:35.760Z,10.49
2016-10-21T02:05:45.735Z,10.57
2016-10-21T02:06:55.717Z,10.49
2016-10-21T02:08:05.384Z,10.54
2016-10-21T02:09:15.352Z,10.59
2016-10-21T02:10:25.653Z,10.65
2016-10-21T02:11:35.642Z,10.72
2016-10-21T02:12:45.612Z,10.7
2016-10-21T02:13:55.583Z,10.73
2016-10-21T02:15:05.886Z,10.67
2016-10-21T02:16:15.872Z,10.61
2016-10-21T02:17:26.166Z,10.63
2016-10-21T02:18:36.454Z,10.58
2016-10-21T02:19:46.762Z,10.47
2016-10-21T02:20:56.449Z,10.52
2016-10-21T02:22:06.462Z,10.59
2016-10-21T02:23:16.433Z,10.59
2016-10-21T02:24:26.428Z,10.52
2016-10-21T02:25:36.784Z,10.52
2016-10-21T02:26:47.058Z,10.55
2016-10-21T02:27:57.047Z,10.52
2016-10-21T02:29:07.340Z,10.51
2016-10-21T02:30:17.043Z,10.47
2016-10-21T02:31:27.321Z,10.54
2016-10-21T02:32:37.286Z,10.58
2016-10-21T02:33:47.266Z,10.61
2016-10-21T02:34:57.548Z,10.59
2016-10-21T02:36:07.229Z,10.57
2016-10-21T02:37:17.546Z,10.59
2016-10-21T02:38:27.519Z,10.69
2016-10-21T02:39:37.489Z,10.67
2016-10-21T02:40:47.452Z,10.61
2016-10-21T02:41:57.743Z,10.61
2016-10-21T02:43:07.415Z,10.55
2016-10-21T02:44:17.397Z,10.54
2016-10-21T02:45:27.683Z,10.55
2016-10-21T02:46:37.349Z,10.49
2016-10-21T02:47:47.016Z,10.42
2016-10-21T02:48:56.679Z,10.36
2016-10-21T02:50:06.955Z,10.39
2016-10-21T02:51:17.251Z,10.35
2016-10-21T02:52:27.529Z,10.36
2016-10-21T02:53:37.205Z,10.33
2016-10-21T02:54:47.202Z,10.39
2016-10-21T02:55:57.212Z,10.35
2016-10-21T02:57:07.519Z,10.36
2016-10-21T02:58:17.823Z,10.25
2016-10-21T02:59:27.816Z,10.41
2016-10-21T03:00:38.090Z,10.31
2016-10-21T03:32:59.939Z,7.16
2016-10-21T03:34:10.209Z,7.12
2016-10-21T03:35:20.515Z,7.19
2016-10-21T03:36:30.481Z,7.21
2016-10-21T03:37:40.740Z,7.26
2016-10-21T03:38:51.026Z,7.33
2016-10-21T03:40:01.052Z,7.48
2016-10-21T03:41:11.339Z,7.67
2016-10-21T03:42:21.616Z,7.83
2016-10-21T03:43:31.587Z,7.98
2016-10-21T03:44:41.868Z,8.14
2016-10-21T03:45:52.185Z,8.14
2016-10-21T03:47:02.472Z,8.4
2016-10-21T03:48:12.741Z,8.67
2016-10-21T03:49:22.408Z,8.74
2016-10-21T03:50:32.373Z,8.77
2016-10-21T03:51:42.662Z,8.95
2016-10-21T03:52:52.946Z,9.11
2016-10-21T03:54:02.913Z,9.26
2016-10-21T03:55:13.224Z,9.26
2016-10-21T03:56:22.886Z,9.44
2016-10-21T03:57:32.863Z,9.47
2016-10-21T03:58:43.144Z,9.63
2016-10-21T03:59:53.414Z,9.52
2016-10-21T04:01:03.704Z,9.64
2016-10-21T04:02:13.983Z,9.72
2016-10-21T04:03:24.264Z,9.7
2016-10-21T04:04:34.224Z,9.85
2016-10-21T04:05:44.214Z,9.77
2016-10-21T04:06:54.526Z,9.75
2016-10-21T04:08:04.813Z,9.84
2016-10-21T04:09:14.526Z,9.81
2016-10-21T04:10:24.421Z,9.95
2016-10-21T04:11:34.393Z,9.89
2016-10-21T04:12:44.675Z,9.82
2016-10-21T04:13:54.942Z,9.92
2016-10-21T04:15:05.253Z,9.89
2016-10-21T04:16:15.244Z,9.93
2016-10-21T04:17:25.222Z,9.98
2016-10-21T04:18:35.196Z,10.05
2016-10-21T04:19:45.173Z,10.08
2016-10-21T04:20:55.442Z,10.05
2016-10-21T04:22:05.113Z,10
2016-10-21T04:23:15.390Z,10.08
2016-10-21T04:24:25.674Z,10.1
2016-10-21T04:25:35.638Z,10.13
2016-10-21T04:26:45.640Z,10.1
2016-10-21T04:27:55.621Z,10.14
2016-10-21T04:29:05.593Z,10.17
2016-10-21T04:30:15.260Z,10.23
2016-10-21T04:31:25.235Z,10.17
2016-10-21T04:32:35.520Z,10.21
2016-10-21T04:33:45.187Z,10.17
2016-10-21T04:34:55.145Z,10.2
2016-10-21T04:36:05.424Z,10.18
2016-10-21T04:37:15.705Z,10.23
2016-10-21T04:38:25.992Z,10.29
2016-10-21T04:39:35.352Z,10.26
2016-10-21T04:40:45.329Z,10.18
2016-10-21T04:41:55.303Z,10.26
2016-10-21T04:43:05.583Z,10.23
2016-10-21T04:44:15.598Z,10.28
2016-10-21T04:45:25.882Z,10.28
2016-10-21T04:46:36.146Z,10.23
2016-10-21T04:47:46.115Z,10.31
2016-10-21T04:48:56.082Z,10.29
2016-10-21T04:50:06.058Z,10.23
2016-10-21T04:51:16.335Z,10.31
2016-10-21T04:52:26.627Z,10.21
2016-10-21T04:53:36.906Z,10.25
2016-10-21T04:54:46.570Z,10.13
2016-10-21T04:55:56.536Z,10.21
2016-10-21T04:57:06.512Z,10.26
2016-10-21T04:58:16.797Z,10.31
2016-10-21T04:59:27.062Z,10.29
2016-10-21T05:00:36.723Z,10.38
2016-10-21T05:01:46.694Z,10.28
2016-10-21T05:02:56.977Z,10.35
2016-10-21T05:04:06.643Z,10.38
2016-10-21T05:05:16.295Z,10.39
2016-10-21T05:06:26.572Z,10.31
2016-10-21T05:07:36.849Z,10.38
2016-10-21T05:08:46.502Z,10.32
2016-10-21T05:09:56.777Z,10.38
2016-10-21T05:11:06.761Z,10.35
2016-10-21T05:12:17.025Z,10.38
2016-10-21T05:13:26.697Z,10.32
2016-10-21T05:14:36.667Z,10.39
2016-10-21T05:15:46.635Z,10.32
2016-10-21T05:16:56.303Z,10.32
2016-10-21T05:18:06.263Z,10.44
2016-10-21T05:19:16.541Z,10.44
2016-10-21T05:20:26.513Z,10.44
2016-10-21T05:21:36.480Z,10.39
2016-10-21T05:22:46.756Z,10.35
2016-10-21T05:23:57.042Z,10.36
2016-10-21T05:25:07.011Z,10.35
2016-10-21T05:26:16.986Z,10.23
2016-10-21T05:27:27.263Z,10.26
2016-10-21T05:28:37.549Z,10.18
2016-10-21T05:29:47.831Z,10.21
2016-10-21T05:30:57.801Z,10.2
2016-10-21T05:32:08.103Z,10.23
2016-10-21T05:33:18.092Z,10.26
2016-10-21T05:34:28.058Z,10.32
2016-10-21T05:35:37.722Z,10.31
2016-10-21T05:36:47.691Z,10.36
2016-10-21T05:37:57.992Z,10.47
2016-10-21T05:39:08.270Z,10.36
2016-10-21T05:40:17.938Z,10.41
2016-10-21T05:41:28.219Z,10.55
2016-10-21T05:42:38.495Z,10.49
2016-10-21T05:43:48.776Z,10.57
2016-10-21T05:44:58.750Z,10.52
2016-10-21T05:46:08.712Z,10.58
2016-10-21T05:47:18.696Z,10.51
2016-10-21T05:48:28.964Z,10.52
2016-10-21T05:49:38.931Z,10.51
2016-10-21T05:50:48.909Z,10.52
2016-10-21T05:51:58.880Z,10.57
2016-10-21T05:53:09.191Z,10.46
2016-10-21T05:54:19.147Z,10.36
2016-10-21T05:55:29.429Z,10.44
2016-10-21T05:56:39.405Z,10.47
2016-10-21T05:57:49.387Z,10.52
2016-10-21T05:58:59.680Z,10.63
2016-10-21T06:00:09.964Z,10.58
2016-10-21T06:01:20.252Z,10.67
2016-10-21T06:02:30.535Z,10.55
2016-10-21T06:03:40.810Z,10.59
2016-10-21T06:04:51.093Z,10.69
2016-10-21T06:06:01.106Z,10.66
2016-10-21T06:07:11.076Z,10.69
2016-10-21T06:08:21.352Z,10.65
2016-10-21T06:09:31.325Z,10.66
2016-10-21T06:10:41.602Z,10.59
2016-10-21T06:11:51.565Z,10.8
2016-10-21T06:13:01.539Z,10.77
2016-10-21T06:14:11.211Z,10.85
2016-10-21T06:15:20.902Z,10.77
2016-10-21T06:16:30.868Z,10.77
2016-10-21T06:17:41.150Z,10.79
2016-10-21T06:18:51.424Z,10.8
2016-10-21T06:20:01.721Z,10.83
2016-10-21T06:21:12.016Z,10.76
2016-10-21T06:22:21.989Z,10.83
2016-10-21T06:23:32.265Z,10.8
2016-10-21T06:24:42.546Z,10.79
2016-10-21T06:25:52.552Z,10.85
2016-10-21T06:27:02.536Z,10.87
2016-10-21T06:28:12.503Z,10.87
2016-10-21T06:29:22.789Z,10.87
2016-10-21T06:30:32.780Z,10.85
2016-10-21T06:31:42.757Z,10.94
2016-10-21T06:32:52.738Z,10.85
2016-10-21T06:34:03.020Z,11.03
2016-10-21T06:35:13.307Z,10.94
2016-10-21T06:36:23.574Z,10.92
2016-10-21T06:37:33.850Z,10.92
2016-10-21T06:38:44.123Z,10.94
2016-10-21T06:39:54.403Z,10.91
2016-10-21T06:41:04.720Z,11.03
2016-10-21T06:42:14.382Z,11.1
2016-10-21T06:43:24.450Z,11.1
2016-10-21T06:44:34.732Z,11.2
2016-10-21T06:45:45.044Z,11.2
2016-10-21T06:46:55.328Z,11.23
2016-10-21T06:48:05.607Z,11.16
2016-10-21T06:49:15.272Z,11.31
2016-10-21T06:50:25.790Z,11.18
2016-10-21T06:51:36.092Z,11.38
2016-10-21T06:52:46.413Z,11.23
2016-10-21T06:53:56.705Z,11.23
2016-10-21T06:55:06.990Z,11.18
2016-10-21T06:56:17.303Z,11.18
2016-10-21T06:57:27.295Z,11.21
2016-10-21T06:58:37.266Z,11.27
2016-10-21T06:59:47.553Z,11.26
2016-10-21T07:00:57.213Z,11.23
2016-10-21T07:02:07.506Z,11.2
2016-10-21T07:03:17.484Z,11.16
2016-10-21T07:04:27.139Z,11.24
2016-10-21T07:05:37.428Z,11.21
2016-10-21T07:06:47.743Z,11.18
2016-10-21T07:07:58.026Z,11.18
2016-10-21T07:09:08.335Z,11.15
2016-10-21T07:10:18.338Z,11.16
2016-10-21T07:11:28.645Z,11.1
2016-10-21T07:12:38.925Z,11.2
2016-10-21T07:13:49.208Z,11.21
2016-10-21T07:14:59.500Z,11.21
2016-10-21T07:16:09.796Z,11.35
2016-10-21T07:17:20.068Z,11.39
2016-10-21T07:18:30.355Z,11.49
2016-10-21T07:19:40.636Z,11.59
2016-10-21T07:20:50.627Z,11.59
2016-10-21T07:22:00.918Z,11.75
2016-10-21T07:23:10.590Z,11.75
2016-10-21T07:24:20.572Z,11.71
2016-10-21T07:25:30.239Z,11.94
2016-10-21T07:26:40.537Z,12.07
2016-10-21T07:27:50.519Z,12.07
2016-10-21T07:29:00.189Z,12.16
2016-10-21T07:30:10.485Z,12.18
2016-10-21T07:31:20.768Z,12.16
2016-10-21T07:32:30.446Z,12.18
2016-10-21T07:33:40.738Z,12.29
2016-10-21T07:34:50.723Z,12.29
2016-10-21T07:36:01.009Z,12.4
2016-10-21T07:37:11.028Z,12.36
2016-10-21T07:38:21.319Z,12.37
2016-10-21T07:39:31.330Z,12.33
2016-10-21T07:40:41.607Z,12.37
2016-10-21T07:41:51.879Z,12.4
2016-10-21T07:43:01.563Z,12.34
2016-10-21T07:44:11.881Z,12.44
2016-10-21T07:45:22.172Z,12.37
2016-10-21T07:46:32.149Z,12.36
2016-10-21T07:47:42.442Z,12.31
2016-10-21T07:48:52.759Z,12.38
2016-10-21T07:50:03.040Z,12.26
2016-10-21T07:51:13.323Z,12.23
2016-10-21T07:52:22.995Z,12.22
2016-10-21T07:53:32.974Z,12.22
2016-10-21T07:54:42.960Z,12.11
2016-10-21T07:55:53.232Z,12.13
2016-10-21T07:57:03.519Z,12.25
2016-10-21T07:58:12.897Z,12.16
2016-10-21T07:59:23.174Z,12.23
2016-10-21T08:00:33.471Z,12.31
2016-10-21T08:01:43.486Z,12.45
2016-10-21T08:02:53.775Z,12.51
2016-10-21T08:04:04.057Z,12.59
2016-10-21T08:05:14.074Z,12.7
2016-10-21T08:06:24.353Z,12.76
2016-10-21T08:07:34.335Z,12.78
2016-10-21T08:08:44.622Z,12.89
2016-10-21T08:09:54.903Z,12.96
2016-10-21T08:11:04.899Z,13.01
2016-10-21T08:12:14.565Z,13.11
2016-10-21T08:13:24.242Z,13.31
2016-10-21T08:14:34.758Z,13.32
2016-10-21T08:15:44.746Z,13.44
2016-10-21T08:16:54.723Z,13.54
2016-10-21T08:18:04.699Z,13.53
2016-10-21T08:19:14.371Z,13.51
2016-10-21T08:20:24.656Z,13.63
2016-10-21T08:21:34.954Z,13.57
2016-10-21T08:22:45.240Z,13.58
2016-10-21T08:23:54.914Z,13.55
2016-10-21T08:25:04.300Z,13.45
2016-10-21T08:26:14.611Z,13.37
2016-10-21T08:27:24.921Z,13.24
2016-10-21T08:28:35.221Z,13.2
2016-10-21T08:29:45.210Z,13.09
2016-10-21T08:30:55.187Z,12.99
2016-10-21T08:32:05.169Z,12.88
2016-10-21T08:33:15.491Z,12.81
2016-10-21T08:34:25.794Z,12.8
2016-10-21T08:35:36.085Z,12.91
2016-10-21T08:36:46.091Z,12.89
2016-10-21T08:37:56.378Z,12.86
2016-10-21T08:39:06.697Z,12.95
2016-10-21T08:40:16.577Z,13.03
2016-10-21T08:41:29.617Z,13.11
2016-10-21T08:42:47.424Z,13.19
2016-10-21T08:44:03.548Z,13.29
2016-10-21T08:45:15.758Z,13.39
2016-10-21T08:46:29.441Z,13.37
2016-10-21T08:47:40.437Z,13.47
2016-10-21T08:48:53.740Z,13.54
2016-10-21T08:50:07.192Z,13.53
2016-10-21T08:51:17.511Z,13.54
2016-10-21T08:52:27.501Z,13.47
2016-10-21T08:53:37.175Z,13.53
2016-10-21T08:54:47.509Z,13.63
2016-10-21T08:55:57.544Z,13.6
2016-10-21T08:57:07.252Z,13.66
2016-10-21T08:58:17.278Z,13.55
2016-10-21T08:59:27.554Z,13.73
2016-10-21T09:00:37.915Z,13.63
2016-10-21T09:01:47.964Z,13.83
2016-10-21T09:02:58.247Z,13.9
2016-10-21T09:04:08.626Z,13.95
2016-10-21T09:05:19.207Z,14.06
2016-10-21T09:06:29.233Z,14.21
2016-10-21T09:07:39.576Z,14.24
2016-10-21T09:08:49.642Z,14.36
2016-10-21T09:09:59.378Z,14.57
2016-10-21T09:11:09.377Z,14.64
2016-10-21T09:12:19.693Z,14.94
2016-10-21T09:13:29.693Z,15.23
2016-10-21T09:14:39.669Z,15.49
2016-10-21T09:15:49.660Z,15.56
2016-10-21T09:16:59.639Z,15.8
2016-10-21T09:18:09.946Z,15.99
2016-10-21T09:19:19.942Z,16.1
2016-10-21T09:20:29.913Z,16.17
2016-10-21T09:21:40.211Z,16.11
2016-10-21T09:22:50.178Z,15.96
2016-10-21T09:24:00.152Z,15.95
2016-10-21T09:25:10.457Z,15.96
2016-10-21T09:26:20.748Z,15.86
2016-10-21T09:27:31.049Z,15.81
2016-10-21T09:28:41.379Z,15.77
2016-10-21T09:29:51.663Z,15.71
2016-10-21T09:31:01.964Z,15.71
2016-10-21T09:32:11.356Z,15.65
2016-10-21T09:33:21.683Z,15.6
2016-10-21T09:34:31.359Z,15.55
2016-10-21T09:35:41.068Z,15.41
2016-10-21T09:36:51.367Z,15.49
2016-10-21T09:38:01.681Z,15.43
2016-10-21T09:39:11.982Z,15.44
2016-10-21T09:40:21.717Z,15.38
2016-10-21T09:41:32.023Z,15.43
2016-10-21T09:42:42.337Z,15.31
2016-10-21T09:43:52.630Z,15.45
2016-10-21T09:45:02.616Z,15.35
2016-10-21T09:46:12.906Z,15.41
2016-10-21T09:47:23.207Z,15.47
2016-10-21T09:48:32.883Z,15.4
2016-10-21T09:49:42.932Z,15.52
2016-10-21T09:50:53.235Z,15.62
2016-10-21T09:52:03.540Z,15.62
2016-10-21T09:53:13.841Z,15.77
2016-10-21T09:54:23.510Z,15.83
2016-10-21T09:55:33.797Z,15.91
2016-10-21T09:56:43.789Z,15.96
2016-10-21T09:57:54.106Z,16.14
2016-10-21T09:59:04.422Z,16.22
2016-10-21T10:00:14.428Z,16.34
2016-10-21T10:01:24.752Z,16.44
2016-10-21T10:02:35.093Z,16.39
2016-10-21T10:03:44.779Z,16.39
2016-10-21T10:04:54.768Z,16.37
2016-10-21T10:06:05.060Z,16.4
2016-10-21T10:07:15.060Z,16.29
2016-10-21T10:08:24.748Z,16.32
2016-10-21T10:09:34.737Z,16.33
2016-10-21T10:10:45.042Z,16.39
2016-10-21T10:11:55.344Z,16.44
2016-10-21T10:13:05.640Z,16.39
2016-10-21T10:14:15.942Z,16.44
2016-10-21T10:15:26.227Z,16.47
2016-10-21T10:16:36.205Z,16.52
2016-10-21T10:17:46.194Z,16.65
2016-10-21T10:18:56.489Z,16.69
2016-10-21T10:20:06.795Z,16.9
2016-10-21T10:21:17.116Z,16.91
2016-10-21T10:22:27.428Z,16.88
2016-10-21T10:23:37.421Z,16.91
2016-10-21T10:24:47.429Z,17
2016-10-21T10:25:57.436Z,16.99
2016-10-21T10:27:07.755Z,16.95
2016-10-21T10:28:18.047Z,16.92
2016-10-21T10:29:28.049Z,17.13
2016-10-21T10:30:38.378Z,17
2016-10-21T10:31:48.680Z,16.9
2016-10-21T10:32:58.984Z,17.07
2016-10-21T10:34:08.692Z,17.03
2016-10-21T10:35:18.997Z,17.05
2016-10-21T10:36:29.304Z,17.12
2016-10-21T10:37:38.977Z,17.06
2016-10-21T10:38:48.728Z,17.09
2016-10-21T10:39:59.049Z,16.99
2016-10-21T10:41:09.037Z,16.99
2016-10-21T10:42:19.066Z,17
2016-10-21T10:43:29.116Z,17.17
2016-10-21T10:44:39.431Z,17.18
2016-10-21T10:45:49.742Z,17.27
2016-10-21T10:46:59.737Z,17.2
2016-10-21T10:48:10.032Z,17.36
2016-10-21T10:49:20.341Z,17.32
2016-10-21T10:50:30.722Z,17.47
2016-10-21T10:51:40.433Z,17.55
2016-10-21T10:52:50.820Z,17.73
2016-10-21T10:54:01.159Z,17.76
2016-10-21T10:55:11.508Z,17.86
2016-10-21T10:56:21.851Z,17.96
2016-10-21T10:57:32.178Z,18.08
2016-10-21T10:58:42.510Z,18.11
2016-10-21T10:59:52.816Z,18.16
2016-10-21T11:01:02.804Z,18.34
2016-10-21T11:02:13.127Z,18.16
2016-10-21T11:03:22.812Z,18.14
2016-10-21T11:04:32.824Z,18.1
2016-10-21T11:05:42.847Z,18.13
2016-10-21T11:06:52.566Z,18.13
2016-10-21T11:08:02.866Z,18.19
2016-10-21T11:09:12.856Z,18.17
2016-10-21T11:10:22.894Z,18.23
2016-10-21T11:11:32.866Z,18.19
2016-10-21T11:12:43.192Z,18.14
2016-10-21T11:13:53.203Z,18.06
2016-10-21T11:15:03.204Z,18.05
2016-10-21T11:16:13.253Z,17.88
2016-10-21T11:17:23.274Z,17.66
2016-10-21T11:18:33.562Z,17.52
2016-10-21T11:19:43.869Z,17.42
2016-10-21T11:20:53.565Z,17.39
2016-10-21T11:22:03.590Z,17.27
2016-10-21T11:23:13.619Z,17.24
2016-10-21T11:24:23.634Z,17.18
2016-10-21T11:25:33.631Z,17.15
2016-10-21T11:26:43.951Z,17.18
2016-10-21T11:27:53.954Z,17.07
2016-10-21T11:29:04.253Z,17.3
2016-10-21T11:30:14.575Z,17.27
2016-10-21T11:31:24.595Z,17.42
2016-10-21T11:32:34.649Z,17.43
2016-10-21T11:33:44.967Z,17.46
2016-10-21T11:34:54.960Z,17.47
2016-10-21T11:36:05.298Z,17.46
2016-10-21T11:37:15.289Z,17.43
2016-10-21T11:38:25.620Z,17.5
2016-10-21T11:39:35.949Z,17.43
2016-10-21T11:40:46.262Z,17.47
2016-10-21T11:41:56.251Z,17.5
2016-10-21T11:43:06.579Z,17.71
2016-10-21T11:44:16.587Z,17.76
2016-10-21T11:45:26.590Z,17.94
2016-10-21T11:46:36.886Z,18.06
2016-10-21T11:47:46.559Z,18.17
2016-10-21T11:48:56.512Z,18.17
2016-10-21T11:50:06.521Z,18.21
2016-10-21T11:51:16.510Z,18.19
2016-10-21T11:52:26.821Z,18.23
2016-10-21T11:53:36.501Z,18.16
2016-10-21T11:54:46.507Z,18.13
2016-10-21T11:55:56.839Z,18.03
2016-10-21T11:57:07.151Z,17.96
2016-10-21T11:58:16.844Z,17.81
2016-10-21T11:59:27.163Z,17.81
2016-10-21T12:00:37.172Z,17.79
2016-10-21T12:01:47.491Z,17.86
2016-10-21T12:02:57.175Z,17.69
2016-10-21T12:04:07.493Z,17.77
2016-10-21T12:05:17.806Z,17.69
2016-10-21T12:06:27.786Z,17.65
2016-10-21T12:07:37.805Z,17.69
2016-10-21T12:08:48.121Z,17.66
2016-10-21T12:09:58.177Z,17.65
2016-10-21T12:11:07.882Z,17.71
2016-10-21T12:12:17.886Z,17.81
2016-10-21T12:13:27.918Z,18.01
2016-10-21T12:14:38.221Z,17.96
2016-10-21T12:15:48.553Z,18.05
2016-10-21T12:16:58.546Z,18.05
2016-10-21T12:18:08.255Z,18.06
2016-10-21T12:19:18.561Z,18.11
2016-10-21T12:20:28.276Z,18.19
2016-10-21T12:21:38.936Z,18.2
2016-10-21T12:22:49.243Z,18.19
2016-10-21T12:23:59.551Z,18.16
2016-10-21T12:25:10.094Z,18.23
2016-10-21T12:26:20.100Z,18.2
2016-10-21T12:27:29.791Z,18.19
2016-10-21T12:28:40.114Z,18.31
2016-10-21T12:29:50.117Z,18.29
2016-10-21T12:31:00.445Z,18.42
2016-10-21T12:32:10.151Z,18.47
2016-10-21T12:33:20.159Z,18.59
2016-10-21T12:34:29.827Z,18.71
2016-10-21T12:35:39.814Z,18.6
2016-10-21T12:36:49.810Z,18.47
2016-10-21T12:38:00.123Z,18.45
2016-10-21T12:39:10.452Z,18.34
2016-10-21T12:40:20.767Z,18.31
2016-10-21T12:41:30.810Z,18.16
2016-10-21T12:42:41.124Z,18.19
2016-10-21T12:43:51.425Z,18.23
2016-10-21T12:45:01.436Z,18.31
2016-10-21T12:46:11.735Z,18.56
2016-10-21T12:47:21.757Z,18.66
2016-10-21T12:48:31.769Z,18.6
2016-10-21T12:49:42.079Z,18.78
2016-10-21T12:50:52.096Z,18.89
2016-10-21T12:52:02.421Z,19.12
2016-10-21T12:53:12.432Z,19.27
2016-10-21T12:54:22.125Z,19.45
2016-10-21T12:55:32.122Z,19.56
2016-10-21T12:56:42.125Z,19.74
2016-10-21T12:57:51.863Z,19.67
2016-10-21T12:59:01.854Z,19.57
2016-10-21T13:00:11.894Z,19.52
2016-10-21T13:01:22.202Z,19.28
2016-10-21T13:02:32.526Z,19
2016-10-21T13:03:42.839Z,18.86
2016-10-21T13:04:53.153Z,18.56
2016-10-21T13:06:03.198Z,18.35
2016-10-21T13:07:13.190Z,18.23
2016-10-21T13:08:23.182Z,18.05
2016-10-21T13:09:33.171Z,17.76
2016-10-21T13:10:43.475Z,17.52
2016-10-21T13:11:53.791Z,17.43
2016-10-21T13:13:03.814Z,17.28
2016-10-21T13:14:13.500Z,17.2
2016-10-21T13:15:23.802Z,17.12
2016-10-21T13:16:34.119Z,17.09
2016-10-21T13:17:44.423Z,17.13
2016-10-21T13:18:54.117Z,17.13
2016-10-21T13:20:04.118Z,17.13
2016-10-21T13:21:14.462Z,17.17
2016-10-21T13:22:24.455Z,17.06
2016-10-21T13:23:34.755Z,17.25
2016-10-21T13:24:44.765Z,17.12
2016-10-21T13:25:54.759Z,17.2
2016-10-21T13:27:05.072Z,17.15
2016-10-21T13:28:15.377Z,17.1
2016-10-21T13:29:25.682Z,17.21
2016-10-21T13:30:36.012Z,17.15
2016-10-21T13:31:45.715Z,17.12
2016-10-21T13:32:55.704Z,17.2
2016-10-21T13:34:05.981Z,17.36
2016-10-21T13:35:16.291Z,17.54
2016-10-21T13:36:26.652Z,17.71
2016-10-21T13:37:36.969Z,17.77
2016-10-21T13:38:46.993Z,17.84
2016-10-21T13:39:56.697Z,17.9
2016-10-21T13:41:07.024Z,17.95
2016-10-21T13:42:17.359Z,17.87
2016-10-21T13:43:27.054Z,17.76
2016-10-21T13:44:36.746Z,17.63
2016-10-21T13:45:46.746Z,17.54
2016-10-21T13:46:57.052Z,17.43
2016-10-21T13:48:07.356Z,17.35
2016-10-21T13:49:17.336Z,17.38
2016-10-21T13:50:27.646Z,17.17
2016-10-21T13:51:37.650Z,17.17
2016-10-21T13:52:47.946Z,17.21
2016-10-21T13:53:57.693Z,17.1
2016-10-21T13:55:07.986Z,17.12
2016-10-21T13:56:18.028Z,17.13
2016-10-21T13:57:28.033Z,17.12
2016-10-21T13:58:38.404Z,17.1
2016-10-21T13:59:48.946Z,16.94
2016-10-21T14:00:59.248Z,16.91
2016-10-21T14:02:09.302Z,16.87
2016-10-21T14:03:19.609Z,16.77
2016-10-21T14:04:29.956Z,16.73
2016-10-21T14:05:40.263Z,16.63
2016-10-21T14:06:50.255Z,16.59
2016-10-21T14:07:59.937Z,16.52
2016-10-21T14:09:10.285Z,16.47
2016-10-21T14:10:19.662Z,16.44
2016-10-21T14:11:29.967Z,16.29
2016-10-21T14:12:39.954Z,16.29
2016-10-21T14:13:50.292Z,16.16
2016-10-21T14:15:00.632Z,16.16
2016-10-21T14:16:10.638Z,16
2016-10-21T14:17:20.939Z,15.95
2016-10-21T14:18:30.942Z,15.96
2016-10-21T14:19:40.957Z,15.81
2016-10-21T14:20:50.961Z,15.73
2016-10-21T14:22:01.291Z,15.6
2016-10-21T14:23:11.612Z,15.68
2016-10-21T14:24:21.615Z,15.59
2016-10-21T14:25:31.920Z,15.47
2016-10-21T14:26:42.251Z,15.45
2016-10-21T14:27:52.581Z,15.43
2016-10-21T14:29:02.585Z,15.44
2016-10-21T14:30:12.267Z,15.4
2016-10-21T14:31:22.579Z,15.27
2016-10-21T14:32:32.656Z,15.2
2016-10-21T14:33:42.662Z,15.12
2016-10-21T14:34:52.973Z,15.02
2016-10-21T14:36:02.664Z,15
2016-10-21T14:37:12.971Z,14.86
2016-10-21T14:38:22.671Z,14.79
2016-10-21T14:39:32.991Z,14.86
2016-10-21T14:40:43.310Z,14.87
2016-10-21T14:41:53.316Z,14.94
2016-10-21T14:43:02.743Z,15.01
2016-10-21T14:44:13.065Z,14.89
2016-10-21T14:45:23.376Z,14.75
2016-10-21T14:46:33.876Z,14.77
2016-10-21T14:47:43.885Z,14.67
2016-10-21T14:48:53.571Z,14.7
2016-10-21T14:50:03.882Z,14.61
2016-10-21T14:51:13.882Z,14.49
2016-10-21T14:52:24.202Z,14.42
2016-10-21T14:53:34.515Z,14.44
2016-10-21T14:54:44.195Z,14.31
2016-10-21T14:55:54.520Z,14.38
2016-10-21T14:57:04.819Z,14.19
2016-10-21T14:58:15.124Z,14.13
2016-10-21T14:59:25.182Z,14.15
2016-10-21T15:00:35.492Z,14.2
2016-10-21T15:01:45.173Z,14.11
2016-10-21T15:02:55.468Z,14.06
2016-10-21T15:04:05.785Z,14.05
2016-10-21T15:05:16.086Z,13.97
2016-10-21T15:06:26.393Z,13.95
2016-10-21T15:07:36.711Z,13.97
2016-10-21T15:08:47.024Z,13.94
2016-10-21T15:09:57.343Z,13.88
2016-10-21T15:11:07.334Z,13.93
2016-10-21T15:12:17.645Z,13.93
2016-10-21T15:13:27.952Z,13.95
2016-10-21T15:14:38.238Z,13.94
2016-10-21T15:15:47.930Z,13.86
2016-10-21T15:16:58.232Z,13.86
2016-10-21T15:18:08.526Z,13.99
2016-10-21T15:19:18.520Z,13.88
2016-10-21T15:20:28.821Z,13.91
2016-10-21T15:21:38.498Z,13.81
2016-10-21T15:22:48.813Z,13.87
2016-10-21T15:23:58.819Z,13.91
2016-10-21T15:25:08.511Z,13.9
2016-10-21T15:26:18.234Z,13.87
2016-10-21T15:27:28.243Z,13.86
2016-10-21T15:28:38.548Z,13.94
2016-10-21T15:29:48.851Z,13.99
2016-10-21T15:30:58.908Z,13.93
2016-10-21T15:32:08.904Z,13.86
2016-10-21T15:33:18.609Z,13.88
2016-10-21T15:34:28.310Z,13.94
2016-10-21T15:35:38.326Z,13.84
2016-10-21T15:36:48.906Z,13.75
2016-10-21T15:37:59.191Z,13.63
2016-10-21T15:39:09.475Z,13.6